Time;durP1;ratioP1;P1;durP2;ratioP2;P2;SDS_P1;SDS_P2;PMS_P1;PMS_P2;Temp;Humidity;BMP_temperature;BMP_pressure;BME280_temperature;BME280_humidity;BME280_pressure;Samples;Min_cycle;Max_cycle;Signal;HPM_P1;HPM_P2
2023/07/20 00:01:03;;;;;;;6.82;4.60;;;;;;;;;;5015033;28;20033;-61
2023/07/20 00:03:28;;;;;;;5.30;4.28;;;;;;;;;;5010684;28;20048;-61
2023/07/20 00:05:53;;;;;;;7.30;4.60;;;;;;;;;;5015049;28;20125;-61
2023/07/20 00:08:19;;;;;;;4.45;4.03;;;;;;;;;;5014899;28;20069;-61
2023/07/20 00:10:44;;;;;;;8.30;4.13;;;;;;;;;;5030288;28;20042;-61
2023/07/20 00:13:10;;;;;;;6.45;4.05;;;;;;;;;;5014638;28;20058;-61
2023/07/20 00:15:36;;;;;;;5.50;4.40;;;;;;;;;;5014835;28;20064;-61
2023/07/20 00:18:01;;;;;;;6.45;4.18;;;;;;;;;;5014697;28;20026;-61
2023/07/20 00:20:26;;;;;;;6.28;4.57;;;;;;;;;;5014526;28;20029;-61
2023/07/20 00:22:52;;;;;;;5.75;4.38;;;;;;;;;;5014756;28;20017;-61
2023/07/20 00:25:18;;;;;;;5.78;4.47;;;;;;;;;;5015314;28;20109;-61
2023/07/20 00:27:43;;;;;;;5.35;4.57;;;;;;;;;;5013990;28;20068;-61
2023/07/20 00:30:09;;;;;;;7.93;5.07;;;;;;;;;;5014206;28;20404;-62
2023/07/20 00:32:34;;;;;;;5.45;4.80;;;;;;;;;;5029704;28;20034;-62
2023/07/20 00:35:00;;;;;;;7.72;4.65;;;;;;;;;;5014271;28;20022;-62
2023/07/20 00:37:25;;;;;;;9.75;4.53;;;;;;;;;;5017765;28;20482;-62
2023/07/20 00:39:51;;;;;;;9.30;4.72;;;;;;;;;;4994876;28;20058;-61
2023/07/20 00:42:17;;;;;;;6.65;4.75;;;;;;;;;;5009636;28;20449;-61
2023/07/20 00:44:44;;;;;;;7.82;5.13;;;;;;;;;;5009475;28;20476;-61
2023/07/20 00:47:09;;;;;;;6.75;4.60;;;;;;;;;;4994699;28;20126;-61
2023/07/20 00:49:34;;;;;;;13.32;7.45;;;;;;;;;;5021647;28;20026;-61
2023/07/20 00:52:00;;;;;;;5.88;4.53;;;;;;;;;;5029161;28;20504;-61
2023/07/20 00:54:26;;;;;;;5.70;4.25;;;;;;;;;;5014575;28;20022;-61
2023/07/20 00:56:53;;;;;;;8.75;4.35;;;;;;;;;;4996562;28;20484;-61
2023/07/20 00:59:18;;;;;;;6.13;4.68;;;;;;;;;;5009510;28;20160;-61
2023/07/20 01:01:44;;;;;;;7.95;5.60;;;;;;;;;;4996657;28;20061;-61
2023/07/20 01:04:10;;;;;;;8.05;5.50;;;;;;;;;;5014123;28;20400;-61
2023/07/20 01:06:41;;;;;;;6.88;5.88;;;;;;;;;;5014346;28;20022;-61
2023/07/20 01:09:18;;;;;;;8.52;7.00;;;;;;;;;;4996167;28;20477;-61
2023/07/20 01:11:43;;;;;;;10.35;6.03;;;;;;;;;;5013930;28;20032;-61
2023/07/20 01:14:09;;;;;;;7.97;5.75;;;;;;;;;;5013839;28;20034;-61
2023/07/20 01:16:34;;;;;;;8.10;5.30;;;;;;;;;;5014049;28;20041;-61
2023/07/20 01:18:59;;;;;;;6.82;5.03;;;;;;;;;;5014349;28;20101;-61
2023/07/20 01:21:28;;;;;;;6.75;4.95;;;;;;;;;;5015687;28;20473;-61
2023/07/20 01:23:56;;;;;;;8.18;4.95;;;;;;;;;;5017904;28;20033;-61
2023/07/20 01:26:31;;;;;;;8.23;4.80;;;;;;;;;;5003933;28;20034;-61
2023/07/20 01:29:08;;;;;;;10.30;4.15;;;;;;;;;;4998386;28;20470;-61
2023/07/20 01:31:34;;;;;;;4.05;3.40;;;;;;;;;;5013021;28;20033;-61
2023/07/20 01:34:01;;;;;;;6.05;3.50;;;;;;;;;;4998121;28;20461;-61
2023/07/20 01:36:37;;;;;;;3.55;3.25;;;;;;;;;;4998204;28;20057;-61
2023/07/20 01:39:04;;;;;;;4.55;3.33;;;;;;;;;;4998020;28;20426;-61
2023/07/20 01:41:30;;;;;;;4.15;2.90;;;;;;;;;;4998363;28;20449;-57
2023/07/20 01:44:02;;;;;;;4.45;3.33;;;;;;;;;;5028484;28;20030;-57
2023/07/20 01:46:27;;;;;;;4.50;3.65;;;;;;;;;;5014240;28;20482;-57
2023/07/20 01:48:54;;;;;;;5.05;3.75;;;;;;;;;;5017395;28;20030;-57
2023/07/20 01:51:19;;;;;;;5.13;3.85;;;;;;;;;;5017739;28;20018;-57
2023/07/20 01:53:47;;;;;;;4.35;3.55;;;;;;;;;;4994444;28;20065;-57
2023/07/20 01:56:13;;;;;;;5.47;4.93;;;;;;;;;;5032330;28;20037;-57
2023/07/20 01:58:39;;;;;;;4.10;3.38;;;;;;;;;;5021789;28;20026;-57
2023/07/20 02:01:04;;;;;;;6.15;3.60;;;;;;;;;;4980088;28;20027;-58
2023/07/20 02:03:29;;;;;;;6.10;4.10;;;;;;;;;;4998069;28;20065;-57
2023/07/20 02:05:56;;;;;;;6.63;3.72;;;;;;;;;;4997797;28;20062;-57
2023/07/20 02:08:22;;;;;;;3.45;3.15;;;;;;;;;;4979764;28;20032;-57
2023/07/20 02:10:48;;;;;;;4.38;3.60;;;;;;;;;;5008040;28;20022;-57
2023/07/20 02:13:13;;;;;;;10.43;6.10;;;;;;;;;;5017635;28;20450;-56
2023/07/20 02:15:40;;;;;;;4.85;3.83;;;;;;;;;;4998993;28;20053;-57
2023/07/20 02:18:05;;;;;;;3.95;3.30;;;;;;;;;;5032460;28;20495;-57
2023/07/20 02:20:33;;;;;;;4.95;3.50;;;;;;;;;;5017177;28;20469;-57
2023/07/20 02:22:58;;;;;;;3.47;3.22;;;;;;;;;;5016987;28;20029;-57
2023/07/20 02:25:23;;;;;;;5.10;3.33;;;;;;;;;;5017288;28;20026;-57
2023/07/20 02:27:49;;;;;;;7.00;3.55;;;;;;;;;;5032327;28;20374;-57
2023/07/20 02:30:16;;;;;;;3.08;2.75;;;;;;;;;;5016567;28;20454;-57
2023/07/20 02:32:45;;;;;;;3.38;3.08;;;;;;;;;;5015498;28;20480;-57
2023/07/20 02:35:10;;;;;;;4.80;3.38;;;;;;;;;;5016870;28;20018;-57
2023/07/20 02:37:36;;;;;;;3.78;3.28;;;;;;;;;;5016839;28;20117;-57
2023/07/20 02:40:04;;;;;;;6.15;3.28;;;;;;;;;;5032129;28;20033;-57
2023/07/20 02:42:29;;;;;;;4.00;3.10;;;;;;;;;;4999184;28;20063;-57
2023/07/20 02:44:55;;;;;;;3.90;3.25;;;;;;;;;;4999031;28;20018;-57
2023/07/20 02:47:20;;;;;;;4.82;3.47;;;;;;;;;;4988658;28;20366;-57
2023/07/20 02:49:45;;;;;;;4.97;3.65;;;;;;;;;;4958673;28;20093;-57
2023/07/20 02:52:12;;;;;;;4.90;3.47;;;;;;;;;;4997627;28;20058;-57
2023/07/20 02:54:37;;;;;;;3.13;2.83;;;;;;;;;;4998657;28;20094;-57
2023/07/20 02:57:03;;;;;;;4.95;2.88;;;;;;;;;;4998663;28;20045;-57
2023/07/20 02:59:29;;;;;;;2.90;2.70;;;;;;;;;;5016111;28;20044;-57
2023/07/20 03:01:55;;;;;;;3.75;2.95;;;;;;;;;;4998530;28;20037;-57
2023/07/20 03:04:21;;;;;;;3.42;2.85;;;;;;;;;;5016281;28;20021;-57
2023/07/20 03:06:47;;;;;;;3.88;2.90;;;;;;;;;;4998691;28;20112;-56
2023/07/20 03:09:12;;;;;;;3.75;2.83;;;;;;;;;;4998366;28;20061;-57
2023/07/20 03:11:37;;;;;;;2.90;2.63;;;;;;;;;;5001158;28;20026;-57
2023/07/20 03:14:03;;;;;;;2.85;2.65;;;;;;;;;;4997349;28;20049;-57
2023/07/20 03:16:32;;;;;;;3.53;2.95;;;;;;;;;;5031366;28;20136;-57
2023/07/20 03:19:00;;;;;;;3.08;2.47;;;;;;;;;;5030868;28;20041;-57
2023/07/20 03:21:25;;;;;;;3.67;2.60;;;;;;;;;;5015883;28;20113;-57
2023/07/20 03:23:53;;;;;;;3.70;2.70;;;;;;;;;;5016014;28;20138;-57
2023/07/20 03:26:19;;;;;;;5.88;2.70;;;;;;;;;;5029084;28;20110;-57
2023/07/20 03:28:44;;;;;;;2.65;2.40;;;;;;;;;;4994753;28;20030;-57
2023/07/20 03:31:09;;;;;;;3.85;2.63;;;;;;;;;;4996144;28;20034;-57
2023/07/20 03:33:38;;;;;;;3.80;2.92;;;;;;;;;;4979360;28;20079;-57
2023/07/20 03:36:03;;;;;;;2.85;2.65;;;;;;;;;;4996184;28;20038;-57
2023/07/20 03:38:29;;;;;;;4.07;2.78;;;;;;;;;;5011144;28;20434;-57
2023/07/20 03:40:56;;;;;;;2.75;2.42;;;;;;;;;;4995807;28;20117;-57
2023/07/20 03:43:22;;;;;;;2.53;2.33;;;;;;;;;;4994752;28;20031;-57
2023/07/20 03:45:48;;;;;;;3.92;2.67;;;;;;;;;;5006991;28;20378;-57
2023/07/20 03:48:15;;;;;;;5.50;2.72;;;;;;;;;;4978741;28;20030;-56
2023/07/20 03:50:40;;;;;;;3.53;2.65;;;;;;;;;;4995981;28;20054;-56
2023/07/20 03:53:06;;;;;;;3.13;2.85;;;;;;;;;;5010686;28;20509;-56
2023/07/20 03:55:31;;;;;;;3.88;2.90;;;;;;;;;;4995674;28;20019;-57
2023/07/20 03:57:57;;;;;;;3.58;2.65;;;;;;;;;;5010725;28;20049;-57
2023/07/20 04:00:22;;;;;;;4.20;2.83;;;;;;;;;;4994607;28;20125;-57
2023/07/20 04:02:49;;;;;;;4.50;3.38;;;;;;;;;;4996361;28;20116;-57
2023/07/20 04:05:15;;;;;;;4.32;2.40;;;;;;;;;;5015415;28;20014;-57
2023/07/20 04:07:40;;;;;;;2.58;2.28;;;;;;;;;;4997263;28;20377;-58
2023/07/20 04:10:06;;;;;;;3.00;2.60;;;;;;;;;;5013691;28;20500;-58
2023/07/20 04:12:32;;;;;;;3.83;2.78;;;;;;;;;;5029843;28;20474;-58
2023/07/20 04:14:58;;;;;;;3.17;2.88;;;;;;;;;;5014594;28;20168;-58
2023/07/20 04:17:23;;;;;;;3.70;2.67;;;;;;;;;;5014787;28;20030;-58
2023/07/20 04:19:49;;;;;;;5.28;2.42;;;;;;;;;;5015140;28;20049;-59
2023/07/20 04:22:17;;;;;;;4.30;2.75;;;;;;;;;;5015283;28;20057;-61
2023/07/20 04:24:42;;;;;;;3.58;2.70;;;;;;;;;;4996557;28;20026;-61
2023/07/20 04:27:08;;;;;;;4.20;2.70;;;;;;;;;;5014584;28;20384;-61
2023/07/20 04:29:33;;;;;;;3.70;2.55;;;;;;;;;;5028981;28;20061;-61
2023/07/20 04:31:59;;;;;;;3.53;2.63;;;;;;;;;;5029844;28;20041;-61
2023/07/20 04:34:24;;;;;;;3.85;2.85;;;;;;;;;;5014242;28;20043;-61
2023/07/20 04:36:50;;;;;;;3.92;2.50;;;;;;;;;;4996922;28;20025;-61
2023/07/20 04:39:17;;;;;;;4.22;2.53;;;;;;;;;;5029204;28;20339;-60
2023/07/20 04:41:45;;;;;;;2.83;2.53;;;;;;;;;;5029467;28;20037;-59
2023/07/20 04:44:10;;;;;;;2.75;2.50;;;;;;;;;;4995561;28;20034;-59
2023/07/20 04:46:36;;;;;;;3.85;2.55;;;;;;;;;;5014539;28;20088;-58
2023/07/20 04:49:02;;;;;;;3.53;2.47;;;;;;;;;;4977178;28;20037;-58
2023/07/20 04:51:31;;;;;;;3.65;2.85;;;;;;;;;;5009708;28;20030;-58
2023/07/20 04:53:57;;;;;;;4.15;2.45;;;;;;;;;;5009775;28;20077;-58
2023/07/20 04:56:24;;;;;;;4.00;2.53;;;;;;;;;;5008977;28;20025;-58
2023/07/20 04:58:50;;;;;;;3.03;2.83;;;;;;;;;;5009775;28;20398;-58
2023/07/20 05:01:15;;;;;;;2.92;2.63;;;;;;;;;;4993383;28;20073;-58
2023/07/20 05:03:41;;;;;;;2.38;2.25;;;;;;;;;;5018951;28;20366;-58
2023/07/20 05:06:10;;;;;;;2.80;2.40;;;;;;;;;;5029028;28;20042;-58
2023/07/20 05:08:35;;;;;;;3.17;2.75;;;;;;;;;;5013846;28;20022;-57
2023/07/20 05:11:00;;;;;;;5.53;2.65;;;;;;;;;;5028842;28;20388;-62
2023/07/20 05:13:26;;;;;;;2.92;2.72;;;;;;;;;;4996679;28;20043;-62
2023/07/20 05:15:52;;;;;;;3.00;2.67;;;;;;;;;;5013794;28;20045;-62
2023/07/20 05:18:19;;;;;;;2.92;2.60;;;;;;;;;;5029502;28;20096;-62
2023/07/20 05:20:49;;;;;;;3.47;2.92;;;;;;;;;;5028696;28;20406;-62
2023/07/20 05:23:17;;;;;;;3.28;3.00;;;;;;;;;;5028696;28;20032;-62
2023/07/20 05:25:42;;;;;;;2.63;2.40;;;;;;;;;;5025786;28;20014;-59
2023/07/20 05:28:08;;;;;;;4.25;2.47;;;;;;;;;;5017687;28;20030;-58
2023/07/20 05:30:33;;;;;;;2.55;2.38;;;;;;;;;;5004353;28;20017;-62
2023/07/20 05:32:59;;;;;;;2.95;2.50;;;;;;;;;;4994567;28;20097;-56
2023/07/20 05:35:25;;;;;;;3.50;2.40;;;;;;;;;;4994056;28;20030;-56
2023/07/20 05:37:50;;;;;;;2.95;2.60;;;;;;;;;;4993898;28;20596;-56
2023/07/20 05:40:18;;;;;;;2.50;2.30;;;;;;;;;;4993683;28;20113;-56
2023/07/20 05:42:45;;;;;;;2.53;2.33;;;;;;;;;;4997504;28;20026;-56
2023/07/20 05:45:10;;;;;;;2.45;2.30;;;;;;;;;;5013948;28;20036;-56
2023/07/20 05:47:35;;;;;;;3.92;2.53;;;;;;;;;;5013522;28;20025;-56
2023/07/20 05:50:01;;;;;;;2.70;2.50;;;;;;;;;;5012282;28;20026;-56
2023/07/20 05:52:26;;;;;;;2.88;2.67;;;;;;;;;;4994963;28;20037;-56
2023/07/20 05:54:51;;;;;;;3.55;2.53;;;;;;;;;;5012806;28;20038;-56
2023/07/20 05:57:16;;;;;;;3.33;2.78;;;;;;;;;;5011016;28;20022;-56
2023/07/20 05:59:44;;;;;;;2.83;2.47;;;;;;;;;;5009814;28;20030;-56
2023/07/20 06:02:10;;;;;;;3.75;2.83;;;;;;;;;;5009583;28;20033;-56
2023/07/20 06:04:35;;;;;;;3.75;3.00;;;;;;;;;;5009734;28;20377;-56
2023/07/20 06:07:00;;;;;;;3.45;3.00;;;;;;;;;;5010906;28;20034;-56
2023/07/20 06:09:27;;;;;;;2.70;2.60;;;;;;;;;;5014138;28;20105;-56
2023/07/20 06:11:52;;;;;;;3.45;2.45;;;;;;;;;;5013824;28;20040;-56
2023/07/20 06:14:18;;;;;;;5.47;3.13;;;;;;;;;;5014930;28;20038;-56
2023/07/20 06:16:43;;;;;;;2.67;2.47;;;;;;;;;;5015024;28;20030;-56
2023/07/20 06:19:11;;;;;;;2.75;2.55;;;;;;;;;;5015608;28;20017;-56
2023/07/20 06:21:36;;;;;;;3.08;2.47;;;;;;;;;;5016796;28;20030;-56
2023/07/20 06:24:01;;;;;;;2.78;2.50;;;;;;;;;;5016762;28;20389;-56
2023/07/20 06:26:28;;;;;;;3.72;2.50;;;;;;;;;;5016983;28;20030;-56
2023/07/20 06:28:53;;;;;;;3.15;2.28;;;;;;;;;;4999350;28;20412;-56
2023/07/20 06:31:19;;;;;;;2.45;2.25;;;;;;;;;;5016564;28;20033;-56
2023/07/20 06:33:44;;;;;;;5.50;2.50;;;;;;;;;;5016566;28;20488;-56
2023/07/20 06:36:10;;;;;;;2.60;2.40;;;;;;;;;;5016787;28;20018;-56
2023/07/20 06:38:36;;;;;;;2.83;2.63;;;;;;;;;;5016526;28;20038;-56
2023/07/20 06:41:01;;;;;;;2.47;2.28;;;;;;;;;;5017018;28;20033;-56
2023/07/20 06:43:26;;;;;;;3.83;2.80;;;;;;;;;;5016404;28;20393;-56
2023/07/20 06:45:55;;;;;;;3.58;2.90;;;;;;;;;;5016641;28;20042;-56
2023/07/20 06:48:21;;;;;;;4.65;3.05;;;;;;;;;;4999067;28;20048;-56
2023/07/20 06:50:46;;;;;;;5.15;3.75;;;;;;;;;;5016475;28;20104;-56
2023/07/20 06:53:11;;;;;;;6.55;4.32;;;;;;;;;;5016262;28;20358;-56
2023/07/20 06:55:38;;;;;;;7.15;4.10;;;;;;;;;;5016426;28;20026;-57
2023/07/20 06:58:03;;;;;;;5.93;4.32;;;;;;;;;;5016671;28;20022;-56
2023/07/20 07:00:28;;;;;;;7.03;4.18;;;;;;;;;;4998893;28;20026;-56
2023/07/20 07:02:53;;;;;;;7.15;4.30;;;;;;;;;;5031185;28;20034;-56
2023/07/20 07:05:19;;;;;;;6.57;4.18;;;;;;;;;;5016011;28;20038;-56
2023/07/20 07:07:44;;;;;;;6.00;4.35;;;;;;;;;;4998738;28;20025;-56
2023/07/20 07:10:09;;;;;;;6.10;4.38;;;;;;;;;;5015873;28;20030;-56
2023/07/20 07:12:35;;;;;;;6.38;3.83;;;;;;;;;;5015792;28;20022;-56
2023/07/20 07:15:01;;;;;;;8.13;4.15;;;;;;;;;;5016007;28;20033;-56
2023/07/20 07:17:26;;;;;;;5.47;3.95;;;;;;;;;;5015735;28;20108;-57
2023/07/20 07:19:54;;;;;;;5.43;3.58;;;;;;;;;;5015248;28;20073;-56
2023/07/20 07:22:20;;;;;;;4.65;3.75;;;;;;;;;;5015927;28;20087;-56
2023/07/20 07:24:45;;;;;;;3.95;3.05;;;;;;;;;;5015848;28;20038;-56
2023/07/20 07:27:11;;;;;;;4.13;3.63;;;;;;;;;;5015823;28;20029;-56
2023/07/20 07:29:36;;;;;;;3.55;2.97;;;;;;;;;;5015535;28;20037;-56
2023/07/20 07:32:01;;;;;;;4.57;3.28;;;;;;;;;;5015684;28;20034;-56
2023/07/20 07:34:27;;;;;;;3.67;2.80;;;;;;;;;;5015728;28;20479;-56
2023/07/20 07:36:52;;;;;;;2.55;2.05;;;;;;;;;;4997966;28;20439;-56
2023/07/20 07:39:18;;;;;;;3.42;2.13;;;;;;;;;;5015567;28;20025;-56
2023/07/20 07:41:43;;;;;;;1.98;1.85;;;;;;;;;;5015849;28;20029;-56
2023/07/20 07:44:09;;;;;;;1.65;1.40;;;;;;;;;;5015258;28;20428;-56
2023/07/20 07:46:34;;;;;;;2.63;1.38;;;;;;;;;;5015195;28;20018;-56
2023/07/20 07:48:59;;;;;;;2.20;1.30;;;;;;;;;;5015149;28;20416;-56
2023/07/20 07:51:26;;;;;;;2.78;1.63;;;;;;;;;;5015625;28;20026;-56
2023/07/20 07:53:52;;;;;;;1.95;1.55;;;;;;;;;;5015082;28;20037;-56
2023/07/20 07:56:21;;;;;;;2.67;1.73;;;;;;;;;;5015305;28;20030;-56
2023/07/20 07:58:46;;;;;;;2.10;1.70;;;;;;;;;;5015298;28;20022;-56
2023/07/20 08:01:12;;;;;;;2.67;1.67;;;;;;;;;;5014942;28;20133;-56
2023/07/20 08:03:38;;;;;;;5.60;1.77;;;;;;;;;;4997946;28;20096;-56
2023/07/20 08:06:04;;;;;;;2.50;1.80;;;;;;;;;;5014810;28;20037;-56
2023/07/20 08:08:31;;;;;;;1.73;1.63;;;;;;;;;;4981007;28;20030;-56
2023/07/20 08:10:57;;;;;;;3.05;1.77;;;;;;;;;;5014952;28;20033;-56
2023/07/20 08:13:23;;;;;;;2.40;1.77;;;;;;;;;;5014729;28;20117;-56
2023/07/20 08:15:54;;;;;;;2.92;1.65;;;;;;;;;;5014606;28;20270;-56
2023/07/20 08:18:19;;;;;;;2.42;1.73;;;;;;;;;;5014934;28;20105;-56
2023/07/20 08:20:45;;;;;;;2.15;1.70;;;;;;;;;;5014602;28;20512;-56
2023/07/20 08:23:10;;;;;;;3.70;2.22;;;;;;;;;;4997373;28;20018;-57
2023/07/20 08:25:37;;;;;;;2.40;2.13;;;;;;;;;;4996946;28;20026;-56
2023/07/20 08:28:02;;;;;;;1.65;1.55;;;;;;;;;;5014479;28;20034;-56
2023/07/20 08:30:40;;;;;;;3.30;1.73;;;;;;;;;;5014747;28;20033;-56
2023/07/20 08:33:05;;;;;;;4.13;1.95;;;;;;;;;;5014717;28;20041;-56
2023/07/20 08:35:30;;;;;;;1.85;1.73;;;;;;;;;;5014371;28;20022;-56
2023/07/20 08:37:56;;;;;;;1.60;1.50;;;;;;;;;;5014615;28;20030;-56
2023/07/20 08:40:21;;;;;;;1.70;1.60;;;;;;;;;;4997064;28;20034;-56
2023/07/20 08:42:46;;;;;;;3.10;1.55;;;;;;;;;;5014287;28;20061;-56
2023/07/20 08:45:13;;;;;;;2.70;1.63;;;;;;;;;;5014217;28;20048;-56
2023/07/20 08:47:38;;;;;;;4.00;1.55;;;;;;;;;;4996605;28;20474;-56
2023/07/20 08:50:06;;;;;;;2.03;1.60;;;;;;;;;;5014139;28;20032;-56
2023/07/20 08:52:34;;;;;;;1.70;1.50;;;;;;;;;;4996611;28;20038;-56
2023/07/20 08:55:03;;;;;;;2.38;1.35;;;;;;;;;;5014094;28;20477;-56
2023/07/20 08:57:28;;;;;;;1.40;1.30;;;;;;;;;;5014064;28;20101;-56
2023/07/20 08:59:53;;;;;;;2.65;1.58;;;;;;;;;;5014005;28;20069;-56
2023/07/20 09:02:21;;;;;;;1.60;1.35;;;;;;;;;;5014011;28;20025;-56
2023/07/20 09:04:46;;;;;;;2.08;1.70;;;;;;;;;;5013961;28;20120;-56
2023/07/20 09:07:13;;;;;;;1.40;1.30;;;;;;;;;;5014124;28;20057;-56
2023/07/20 09:09:42;;;;;;;1.60;1.50;;;;;;;;;;5013907;28;20505;-56
2023/07/20 09:12:16;;;;;;;1.80;1.70;;;;;;;;;;4996867;28;20030;-56
2023/07/20 09:14:45;;;;;;;1.67;1.58;;;;;;;;;;5013824;28;20501;-56
2023/07/20 09:17:15;;;;;;;1.50;1.40;;;;;;;;;;5014097;28;20033;-56
2023/07/20 09:19:47;;;;;;;1.70;1.60;;;;;;;;;;5014382;28;20044;-56
2023/07/20 09:22:12;;;;;;;4.30;1.80;;;;;;;;;;5013769;28;20035;-56
2023/07/20 09:24:38;;;;;;;1.63;1.52;;;;;;;;;;5014042;28;20030;-56
2023/07/20 09:27:04;;;;;;;1.90;1.67;;;;;;;;;;5013731;28;20056;-56
2023/07/20 09:29:30;;;;;;;2.63;1.92;;;;;;;;;;5013710;28;20057;-56
2023/07/20 09:32:02;;;;;;;2.00;1.90;;;;;;;;;;5014188;28;20032;-56
2023/07/20 09:34:31;;;;;;;2.58;1.92;;;;;;;;;;5013936;28;20037;-56
2023/07/20 09:36:57;;;;;;;2.67;1.67;;;;;;;;;;5013708;28;20366;-56
2023/07/20 09:39:23;;;;;;;2.00;1.90;;;;;;;;;;5013590;28;20461;-56
2023/07/20 09:41:48;;;;;;;1.70;1.60;;;;;;;;;;5014387;28;20030;-56
2023/07/20 09:44:15;;;;;;;2.38;2.17;;;;;;;;;;5017509;28;20042;-56
2023/07/20 09:46:44;;;;;;;2.95;2.15;;;;;;;;;;5017742;28;20123;-56
2023/07/20 09:49:09;;;;;;;2.17;1.98;;;;;;;;;;5017980;28;20385;-56
2023/07/20 09:51:35;;;;;;;2.38;2.20;;;;;;;;;;5017290;28;20101;-56
2023/07/20 09:54:03;;;;;;;3.38;2.40;;;;;;;;;;5017343;28;20033;-56
2023/07/20 09:56:29;;;;;;;4.07;2.50;;;;;;;;;;5017233;28;20029;-56
2023/07/20 09:58:54;;;;;;;2.50;2.30;;;;;;;;;;5017795;28;20033;-56
2023/07/20 10:01:21;;;;;;;3.03;2.35;;;;;;;;;;5017727;28;20010;-56
2023/07/20 10:03:53;;;;;;;2.80;2.10;;;;;;;;;;5017098;28;20049;-56
2023/07/20 10:06:23;;;;;;;2.40;2.28;;;;;;;;;;5017066;28;20038;-56
2023/07/20 10:08:52;;;;;;;3.05;2.20;;;;;;;;;;4999778;28;20436;-56
2023/07/20 10:11:17;;;;;;;2.92;2.28;;;;;;;;;;5017021;28;20076;-56
2023/07/20 10:13:43;;;;;;;3.35;2.63;;;;;;;;;;4983326;28;20053;-56
2023/07/20 10:16:11;;;;;;;2.67;1.80;;;;;;;;;;5016617;28;20058;-56
2023/07/20 10:18:36;;;;;;;2.00;1.90;;;;;;;;;;5016873;28;20473;-56
2023/07/20 10:21:01;;;;;;;2.33;2.22;;;;;;;;;;5017077;28;20092;-56
2023/07/20 10:23:29;;;;;;;2.47;2.28;;;;;;;;;;5017378;28;20022;-56
2023/07/20 10:25:54;;;;;;;4.35;2.35;;;;;;;;;;5017041;28;20030;-56
2023/07/20 10:28:20;;;;;;;2.28;2.17;;;;;;;;;;4982931;28;20543;-56
2023/07/20 10:30:46;;;;;;;2.05;1.90;;;;;;;;;;5016615;28;20465;-56
2023/07/20 10:33:11;;;;;;;2.15;2.00;;;;;;;;;;5016927;28;20029;-56
2023/07/20 10:36:00;;;;;;;2.55;2.10;;;;;;;;;;5016581;28;20041;-56
2023/07/20 10:38:38;;;;;;;2.20;2.00;;;;;;;;;;5016826;28;20031;-56
2023/07/20 10:41:04;;;;;;;2.22;2.10;;;;;;;;;;4999250;28;20109;-56
2023/07/20 10:43:30;;;;;;;2.42;2.17;;;;;;;;;;5016684;28;20141;-56
2023/07/20 10:45:56;;;;;;;1.90;1.80;;;;;;;;;;5016638;28;20053;-56
2023/07/20 10:48:25;;;;;;;2.05;1.77;;;;;;;;;;5016633;28;20136;-56
2023/07/20 10:51:08;;;;;;;1.70;1.58;;;;;;;;;;5016492;28;20083;-56
2023/07/20 10:53:34;;;;;;;1.92;1.83;;;;;;;;;;5015638;28;20117;-56
2023/07/20 10:56:07;;;;;;;2.67;2.15;;;;;;;;;;4999104;28;20045;-56
2023/07/20 10:58:33;;;;;;;2.20;2.00;;;;;;;;;;5016121;28;20425;-56
2023/07/20 11:01:02;;;;;;;2.50;2.10;;;;;;;;;;5016245;28;20041;-56
2023/07/20 11:03:32;;;;;;;2.63;2.43;;;;;;;;;;5016621;28;20450;-56
2023/07/20 11:05:58;;;;;;;2.45;2.17;;;;;;;;;;5016320;28;20053;-56
2023/07/20 11:08:42;;;;;;;2.00;1.80;;;;;;;;;;5015956;28;20034;-56
2023/07/20 11:11:26;;;;;;;2.13;1.98;;;;;;;;;;5016385;28;20038;-56
2023/07/20 11:13:55;;;;;;;3.03;2.28;;;;;;;;;;5015694;28;20058;-57
2023/07/20 11:16:31;;;;;;;2.40;2.10;;;;;;;;;;5016357;28;20037;-56
2023/07/20 11:18:58;;;;;;;2.15;2.05;;;;;;;;;;4998278;28;20037;-56
2023/07/20 11:21:23;;;;;;;1.85;1.75;;;;;;;;;;5016252;28;20069;-57
2023/07/20 11:23:48;;;;;;;1.80;1.70;;;;;;;;;;5015684;28;20064;-56
2023/07/20 11:26:15;;;;;;;3.47;2.30;;;;;;;;;;5015596;28;20034;-56
2023/07/20 11:28:40;;;;;;;2.08;1.98;;;;;;;;;;5015817;28;20485;-56
2023/07/20 11:31:05;;;;;;;2.40;2.20;;;;;;;;;;5015510;28;20053;-56
2023/07/20 11:33:31;;;;;;;2.85;1.90;;;;;;;;;;5015488;28;20037;-56
2023/07/20 11:35:56;;;;;;;2.35;2.10;;;;;;;;;;5015459;28;20022;-56
2023/07/20 11:38:21;;;;;;;2.85;2.20;;;;;;;;;;5015398;28;20026;-56
2023/07/20 11:40:46;;;;;;;2.08;1.90;;;;;;;;;;5015340;28;20512;-56
2023/07/20 11:43:12;;;;;;;2.53;1.90;;;;;;;;;;5015567;28;20033;-56
2023/07/20 11:45:38;;;;;;;1.60;1.50;;;;;;;;;;5015760;28;20026;-56
2023/07/20 11:48:04;;;;;;;3.15;1.80;;;;;;;;;;5015448;28;20386;-56
2023/07/20 11:50:29;;;;;;;2.53;1.83;;;;;;;;;;5015409;28;20022;-56
2023/07/20 11:52:55;;;;;;;2.33;1.55;;;;;;;;;;5015326;28;20037;-56
2023/07/20 11:55:20;;;;;;;1.98;1.88;;;;;;;;;;5015333;28;20030;-56
2023/07/20 11:58:19;;;;;;;1.80;1.70;;;;;;;;;;5015340;28;20354;-56
2023/07/20 12:00:44;;;;;;;1.75;1.65;;;;;;;;;;4992792;28;20470;-56
2023/07/20 12:03:12;;;;;;;2.85;1.50;;;;;;;;;;5014960;28;20026;-57
2023/07/20 12:05:38;;;;;;;1.80;1.70;;;;;;;;;;5014642;28;20033;-56
2023/07/20 12:08:04;;;;;;;1.77;1.63;;;;;;;;;;4997322;28;20056;-56
2023/07/20 12:10:29;;;;;;;2.17;1.80;;;;;;;;;;5015083;28;20512;-56
2023/07/20 12:13:00;;;;;;;2.58;1.48;;;;;;;;;;5014693;28;20026;-56
2023/07/20 12:15:26;;;;;;;1.60;1.50;;;;;;;;;;4993841;28;20097;-56
2023/07/20 12:17:53;;;;;;;1.50;1.40;;;;;;;;;;4995104;28;20038;-56
2023/07/20 12:20:25;;;;;;;1.48;1.45;;;;;;;;;;4995344;28;20034;-56
2023/07/20 12:22:50;;;;;;;2.03;1.60;;;;;;;;;;4994138;28;20022;-56
2023/07/20 12:25:18;;;;;;;1.67;1.58;;;;;;;;;;4994976;28;20402;-56
2023/07/20 12:27:44;;;;;;;1.65;1.55;;;;;;;;;;4994941;28;20034;-56
2023/07/20 12:30:09;;;;;;;1.60;1.50;;;;;;;;;;4995333;28;20038;-56
2023/07/20 12:32:35;;;;;;;1.50;1.40;;;;;;;;;;4995058;28;20033;-56
2023/07/20 12:35:00;;;;;;;1.92;1.67;;;;;;;;;;4993536;28;20091;-56
2023/07/20 12:37:26;;;;;;;1.52;1.42;;;;;;;;;;4995047;28;20030;-56
2023/07/20 12:39:54;;;;;;;2.25;1.38;;;;;;;;;;4994981;28;20018;-56
2023/07/20 12:42:19;;;;;;;1.70;1.60;;;;;;;;;;4994943;28;20489;-56
2023/07/20 12:44:46;;;;;;;3.22;1.42;;;;;;;;;;4994628;28;20034;-56
2023/07/20 12:47:12;;;;;;;1.50;1.40;;;;;;;;;;5010043;28;20450;-56
2023/07/20 12:49:37;;;;;;;3.05;1.30;;;;;;;;;;4994548;28;20077;-56
2023/07/20 12:52:03;;;;;;;1.58;1.48;;;;;;;;;;4993380;28;20043;-56
2023/07/20 12:54:28;;;;;;;2.90;1.20;;;;;;;;;;5009591;28;20104;-56
2023/07/20 12:56:54;;;;;;;2.67;1.40;;;;;;;;;;4993571;28;20065;-56
2023/07/20 12:59:19;;;;;;;1.33;1.30;;;;;;;;;;4994729;28;20030;-56
2023/07/20 13:01:46;;;;;;;2.83;1.65;;;;;;;;;;4994375;28;20386;-56
2023/07/20 13:04:13;;;;;;;2.08;1.63;;;;;;;;;;4994638;28;20110;-56
2023/07/20 13:06:39;;;;;;;1.75;1.50;;;;;;;;;;4994356;28;20042;-56
2023/07/20 13:09:04;;;;;;;2.15;1.02;;;;;;;;;;4994998;28;20117;-57
2023/07/20 13:11:30;;;;;;;1.70;1.05;;;;;;;;;;4994163;28;20049;-56
2023/07/20 13:13:55;;;;;;;1.95;1.25;;;;;;;;;;5001025;28;20056;-57
2023/07/20 13:16:20;;;;;;;1.20;1.10;;;;;;;;;;5033004;28;20529;-56
2023/07/20 13:18:46;;;;;;;1.30;1.20;;;;;;;;;;5033760;28;20025;-56
2023/07/20 13:21:11;;;;;;;1.20;1.10;;;;;;;;;;5032525;28;20033;-56
2023/07/20 13:23:37;;;;;;;1.30;1.20;;;;;;;;;;5033867;28;20105;-56
2023/07/20 13:26:03;;;;;;;1.88;1.30;;;;;;;;;;5034062;28;20041;-56
2023/07/20 13:28:28;;;;;;;1.98;1.27;;;;;;;;;;5015803;28;20026;-56
2023/07/20 13:30:53;;;;;;;1.08;0.93;;;;;;;;;;5016196;28;20472;-56
2023/07/20 13:33:18;;;;;;;1.42;1.17;;;;;;;;;;5033659;28;20056;-56
2023/07/20 13:35:44;;;;;;;1.10;1.10;;;;;;;;;;5033879;28;20022;-56
2023/07/20 13:38:09;;;;;;;2.15;0.98;;;;;;;;;;5016155;28;20461;-56
2023/07/20 13:40:35;;;;;;;1.40;1.10;;;;;;;;;;5033783;28;20021;-56
2023/07/20 13:43:00;;;;;;;1.10;1.10;;;;;;;;;;5033673;28;20372;-56
2023/07/20 13:45:26;;;;;;;1.48;1.38;;;;;;;;;;5033838;28;20021;-56
2023/07/20 13:47:51;;;;;;;1.20;1.13;;;;;;;;;;5033791;28;20041;-56
2023/07/20 13:50:16;;;;;;;1.20;1.20;;;;;;;;;;5033602;28;20022;-56
2023/07/20 13:52:42;;;;;;;1.60;1.50;;;;;;;;;;5033146;28;20147;-56
2023/07/20 13:55:08;;;;;;;2.55;1.30;;;;;;;;;;5015584;28;20469;-62
2023/07/20 13:57:33;;;;;;;1.88;1.70;;;;;;;;;;5027775;28;20018;-62
2023/07/20 14:00:00;;;;;;;1.25;1.15;;;;;;;;;;5013831;28;20030;-61
2023/07/20 14:02:26;;;;;;;1.30;1.30;;;;;;;;;;5014621;28;20022;-62
2023/07/20 14:04:51;;;;;;;1.60;1.50;;;;;;;;;;5033000;28;20116;-62
2023/07/20 14:07:16;;;;;;;1.42;1.33;;;;;;;;;;5033003;28;20104;-56
2023/07/20 14:09:42;;;;;;;3.80;1.50;;;;;;;;;;5033589;28;20033;-61
2023/07/20 14:12:08;;;;;;;1.40;1.30;;;;;;;;;;5033383;28;20108;-61
2023/07/20 14:14:33;;;;;;;1.98;1.25;;;;;;;;;;5032502;28;20045;-56
2023/07/20 14:16:59;;;;;;;2.63;1.63;;;;;;;;;;5014821;28;20543;-56
2023/07/20 14:19:24;;;;;;;2.08;1.52;;;;;;;;;;5033111;28;20014;-61
2023/07/20 14:21:50;;;;;;;1.55;1.38;;;;;;;;;;5033697;28;20041;-56
2023/07/20 14:24:15;;;;;;;1.70;1.60;;;;;;;;;;5033190;28;20053;-56
2023/07/20 14:26:40;;;;;;;2.85;1.50;;;;;;;;;;5032950;28;20080;-56
2023/07/20 14:29:06;;;;;;;1.75;1.40;;;;;;;;;;5018368;28;20033;-56
2023/07/20 14:31:32;;;;;;;2.60;1.30;;;;;;;;;;5002143;28;20033;-56
2023/07/20 14:33:57;;;;;;;2.15;1.23;;;;;;;;;;5036631;28;20026;-56
2023/07/20 14:36:22;;;;;;;1.60;1.40;;;;;;;;;;5036339;28;20458;-56
2023/07/20 14:38:48;;;;;;;1.60;1.50;;;;;;;;;;5036596;28;20026;-56